Santa Maria Pub,Capt G Allan Hancock Field Santa Maria US
ICAO: KSMX
IATA: SMX
Category: Medium
Scheduled Services: Yes

Elevation: 261 ft
TransAlt. 18000 ft.

Airport Communications:
SANTA BARB APP/DEP:124.15
ATIS:121.15
CTAF:118.3
GND:121.9
HAWTHORNE RDO:111
TWR:118.3
UNICOM:122.95

KSMX Zoom In..

If you have problems with the map follow the link
https://www.worldairports.se/pages/airport.php?
ICAO=KSMX

Runways:

(A) RW 02 length 5194 ft width 75 ft
---- / hdg 22

(B) RW 12 length 8004 ft width 150 ft
ILS 108.90 / hdg 121

(C) RW 20 length 5194 ft width 75 ft
---- / hdg 202

(D) RW 30 length 8004 ft width 150 ft
---- / hdg 301

Location; KSMX
Day. 12 / Time. 23.51 Zulu
* Altimeter: 30.22
* Temperature: 18° c. 64.4°f.
* Wind from: 290° Speed 09 kn.
Dewpoint: 14° c.
Visibility: 10 Statute Miles.
Clouds: Few 1200 ft.

KSMX 122351Z 29009KT 10SM FEW012 18/14 A3022 RMK AO2 SLP235 T01780139 10194 20161 56006


Wind From 290°
Speed 09 kn.

 
 
jpsmedia worldairports.se 2019   terms of use